createdAt,value
2019-06-08T06:54:54.880Z,100536.50
2019-06-08T06:57:53.585Z,100535.06
2019-06-08T07:00:40.963Z,100535.12
2019-06-08T07:03:29.965Z,100539.66
2019-06-08T07:06:10.580Z,100532.97
2019-06-08T07:08:50.253Z,100539.11
2019-06-08T07:11:29.615Z,100537.73
2019-06-08T07:14:07.862Z,100535.78
2019-06-08T07:16:45.800Z,100531.33
2019-06-08T07:19:23.071Z,100540.24
2019-06-08T07:22:02.228Z,100531.05
2019-06-08T07:24:44.325Z,100530.84
2019-06-08T07:27:22.146Z,100537.67
2019-06-08T07:30:06.597Z,100533.77
2019-06-08T07:32:56.644Z,100531.55
2019-06-08T07:35:35.405Z,100532.16
2019-06-08T07:38:16.178Z,100533.81
2019-06-08T07:40:59.871Z,100532.72
2019-06-08T07:43:37.247Z,100533.58
2019-06-08T07:46:23.897Z,100535.27
2019-06-08T07:49:04.176Z,100533.89
2019-06-08T07:51:58.921Z,100532.50
2019-06-08T07:54:43.623Z,100530.53
2019-06-08T07:57:31.049Z,100537.01
2019-06-08T08:00:18.062Z,100532.50
2019-06-08T08:02:58.293Z,100533.94
2019-06-08T08:05:38.171Z,100539.56
2019-06-08T08:08:17.462Z,100542.69
2019-06-08T08:10:56.718Z,100535.11
2019-06-08T08:13:38.224Z,100531.72
2019-06-08T08:16:18.673Z,100532.55
2019-06-08T08:19:00.821Z,100531.72
2019-06-08T08:21:41.735Z,100535.94
2019-06-08T08:24:21.181Z,100527.22
2019-06-08T08:27:03.823Z,100530.02
2019-06-08T08:29:44.737Z,100537.94
2019-06-08T08:32:28.371Z,100532.31
2019-06-08T08:35:08.570Z,100537.94
2019-06-08T08:37:47.422Z,100531.45
2019-06-08T08:40:28.198Z,100535.13
2019-06-08T08:43:05.827Z,100533.98
2019-06-08T08:45:44.460Z,100522.19
2019-06-08T08:48:28.213Z,100534.58
2019-06-08T08:51:03.958Z,100529.51
2019-06-08T08:53:41.487Z,100524.45
2019-06-08T08:56:18.365Z,100525.31
2019-06-08T08:59:02.501Z,100526.15
2019-06-08T09:01:40.146Z,100524.45
2019-06-08T09:04:18.552Z,100520.81
2019-06-08T09:06:58.813Z,100526.43
2019-06-08T09:09:38.436Z,100510.40
2019-06-08T09:12:18.055Z,100514.36
2019-06-08T09:14:58.900Z,100515.77
2019-06-08T09:17:38.829Z,100514.36
2019-06-08T09:20:19.271Z,100520.83
2019-06-08T09:23:06.736Z,100518.31
2019-06-08T09:25:40.408Z,100526.75
2019-06-08T09:28:23.089Z,100518.31
2019-06-08T09:31:05.269Z,100518.31
2019-06-08T09:33:42.320Z,100527.58
2019-06-08T09:36:24.155Z,100526.75
2019-06-08T09:39:04.448Z,100519.98
2019-06-08T09:41:44.030Z,100526.75
2019-06-08T09:44:23.598Z,100531.50
2019-06-08T09:47:07.860Z,100523.94
2019-06-08T09:49:44.443Z,100518.31
2019-06-08T09:52:23.004Z,100517.45
2019-06-08T09:55:02.860Z,100515.50
2019-06-08T09:57:38.478Z,100513.21
2019-06-08T10:00:25.355Z,100513.21
2019-06-08T10:03:04.598Z,100508.73
2019-06-08T10:05:41.158Z,100504.78
2019-06-08T10:08:21.590Z,100505.33
2019-06-08T10:11:01.594Z,100496.59
2019-06-08T10:13:42.276Z,100503.56
2019-06-08T10:16:18.797Z,100501.25
2019-06-08T10:19:00.419Z,100505.70
2019-06-08T10:21:42.950Z,100501.72
2019-06-08T10:24:20.366Z,100499.68
2019-06-08T10:26:59.282Z,100501.60
2019-06-08T10:29:38.312Z,100491.41
2019-06-08T10:32:18.015Z,100487.71
2019-06-08T10:35:00.010Z,100488.48
2019-06-08T10:37:40.930Z,100486.21
2019-06-08T10:40:19.135Z,100487.59
2019-06-08T10:42:59.842Z,100487.84
2019-06-08T10:45:37.025Z,100490.05
2019-06-08T10:48:14.341Z,100492.86
2019-06-08T10:50:51.844Z,100486.05
2019-06-08T10:53:46.570Z,100489.98
2019-06-08T10:56:20.969Z,100488.25
2019-06-08T10:59:01.599Z,100487.67
2019-06-08T11:01:40.926Z,100480.06
2019-06-08T11:04:23.082Z,100477.83
2019-06-08T11:07:07.208Z,100482.09
2019-06-08T11:09:48.235Z,100475.73
2019-06-08T11:12:28.346Z,100480.06
2019-06-08T11:15:11.786Z,100476.09
2019-06-08T11:17:51.117Z,100478.08
2019-06-08T11:20:30.749Z,100482.30
2019-06-08T11:23:12.543Z,100477.83
2019-06-08T11:25:53.997Z,100477.25
2019-06-08T11:28:38.300Z,100482.05
2019-06-08T11:31:19.872Z,100474.15
2019-06-08T11:34:03.800Z,100464.55
2019-06-08T11:36:41.725Z,100466.53
2019-06-08T11:39:19.618Z,100461.73
2019-06-08T11:41:58.794Z,100458.31
2019-06-08T11:44:39.069Z,100458.86
2019-06-08T11:47:18.172Z,100457.92
2019-06-08T11:49:58.511Z,100461.31
2019-06-08T11:52:39.958Z,100458.17
2019-06-08T11:55:24.091Z,100461.59
2019-06-08T11:58:22.614Z,100458.71
2019-06-08T12:01:15.293Z,100453.69
2019-06-08T12:04:05.881Z,100461.52
2019-06-08T12:07:06.386Z,100453.08
2019-06-08T12:09:44.918Z,100447.99
2019-06-08T12:12:38.336Z,100450.23
2019-06-08T12:15:41.948Z,100458.92
2019-06-08T12:18:30.636Z,100459.47
2019-06-08T12:21:14.604Z,100456.36
2019-06-08T12:23:59.317Z,100453.55
2019-06-08T12:26:54.788Z,100446.22
2019-06-08T12:29:50.083Z,100442.58
2019-06-08T12:32:35.887Z,100448.78
2019-06-08T12:35:15.476Z,100458.63
2019-06-08T12:38:09.624Z,100457.48
2019-06-08T12:40:51.446Z,100451.64
2019-06-08T12:43:31.912Z,100456.72
2019-06-08T12:46:11.119Z,100456.72
2019-06-08T12:48:55.323Z,100457.34
2019-06-08T12:51:37.968Z,100463.26
2019-06-08T12:54:20.806Z,100464.41
2019-06-08T12:57:00.922Z,100462.21
2019-06-08T12:59:45.559Z,100461.67
2019-06-08T13:02:28.948Z,100462.82
2019-06-08T13:05:18.978Z,100454.95
2019-06-08T13:07:58.814Z,100456.11
2019-06-08T13:10:38.223Z,100458.63
2019-06-08T13:13:24.179Z,100456.98
2019-06-08T13:16:04.658Z,100453.34
2019-06-08T13:18:49.684Z,100446.05
2019-06-08T13:21:35.305Z,100441.55
2019-06-08T13:24:17.265Z,100438.11
2019-06-08T13:27:01.733Z,100434.47
2019-06-08T13:29:48.926Z,100436.45
2019-06-08T13:32:28.893Z,100431.94
2019-06-08T13:35:10.314Z,100429.34
2019-06-08T13:37:50.079Z,100430.17
2019-06-08T13:40:40.210Z,100427.36
2019-06-08T13:43:25.377Z,100421.70
2019-06-08T13:46:09.067Z,100415.16
2019-06-08T13:49:00.167Z,100413.21
2019-06-08T13:51:44.588Z,100408.12
2019-06-08T13:54:43.785Z,100408.34
2019-06-08T13:57:25.891Z,100397.94
2019-06-08T14:00:11.754Z,100393.36
2019-06-08T14:03:01.044Z,100399.53
2019-06-08T14:05:50.644Z,100395.55
2019-06-08T14:08:43.217Z,100401.19
2019-06-08T14:11:47.647Z,100394.43
2019-06-08T14:14:26.018Z,100395.27
2019-06-08T14:17:13.826Z,100392.74
2019-06-08T14:19:54.987Z,100379.82
2019-06-08T14:22:42.873Z,100377.30
2019-06-08T14:25:26.555Z,100375.06
2019-06-08T14:28:08.836Z,100373.66
2019-06-08T14:30:54.724Z,100370.30
2019-06-08T14:33:45.121Z,100368.64
2019-06-08T14:36:41.018Z,100368.64
2019-06-08T14:39:30.001Z,100371.16
2019-06-08T14:42:14.412Z,100373.12
2019-06-08T14:45:10.974Z,100368.64
2019-06-08T14:48:01.404Z,100367.48
2019-06-08T14:51:04.136Z,100365.83
2019-06-08T14:53:48.441Z,100356.84
2019-06-08T14:56:37.535Z,100355.41
2019-06-08T14:59:30.075Z,100353.41
2019-06-08T15:02:23.562Z,100349.56
2019-06-08T15:05:07.827Z,100346.75
2019-06-08T15:08:17.555Z,100346.75
2019-06-08T15:10:49.644Z,100349.02
2019-06-08T15:13:31.217Z,100349.02
2019-06-08T15:16:10.698Z,100343.39
2019-06-08T15:19:00.090Z,100351.01
2019-06-08T15:21:50.719Z,100345.67
2019-06-08T15:24:33.232Z,100355.27
2019-06-08T15:27:12.224Z,100348.23
2019-06-08T15:29:55.743Z,100348.48
2019-06-08T15:32:50.290Z,100343.19
2019-06-08T15:35:37.762Z,100347.95
2019-06-08T15:38:23.834Z,100353.25
2019-06-08T15:41:20.744Z,100340.05
2019-06-08T15:43:58.753Z,100343.19
2019-06-08T15:46:53.744Z,100339.50
2019-06-08T15:49:44.355Z,100339.00
2019-06-08T15:52:24.398Z,100334.78
2019-06-08T15:55:12.240Z,100345.75
2019-06-08T15:57:54.966Z,100339.30
2019-06-08T16:00:34.551Z,100337.31
2019-06-08T16:03:15.287Z,100345.22
2019-06-08T16:05:56.853Z,100342.73
2019-06-08T16:08:40.717Z,100348.03
2019-06-08T16:11:26.425Z,100350.59
2019-06-08T16:14:05.830Z,100355.64
2019-06-08T16:16:47.560Z,100368.88
2019-06-08T16:19:35.967Z,100370.54
2019-06-08T16:22:22.150Z,100375.66
2019-06-08T16:25:11.510Z,100375.66
2019-06-08T16:27:53.296Z,100373.97
2019-06-08T16:30:39.426Z,100365.53
2019-06-08T16:33:20.100Z,100368.34
2019-06-08T16:36:04.946Z,100360.73
2019-06-08T16:38:48.530Z,100370.59
2019-06-08T16:41:33.968Z,100367.77
2019-06-08T16:44:19.097Z,100369.18
2019-06-08T16:47:14.324Z,100373.97
2019-06-08T16:50:02.954Z,100379.59
2019-06-08T16:52:45.435Z,100384.66
2019-06-08T16:55:38.436Z,100390.61
2019-06-08T16:58:16.760Z,100402.69
2019-06-08T17:00:56.388Z,100400.45
2019-06-08T17:03:36.988Z,100421.55
2019-06-08T17:06:18.319Z,100424.08
2019-06-08T17:09:09.582Z,100419.03
2019-06-08T17:11:54.558Z,100410.59
2019-06-08T17:14:36.415Z,100414.23
2019-06-08T17:17:15.050Z,100414.81
2019-06-08T17:19:54.607Z,100414.55
2019-06-08T17:22:36.822Z,100416.22
2019-06-08T17:25:27.597Z,100410.59
2019-06-08T17:28:15.205Z,100403.30
2019-06-08T17:30:57.480Z,100407.23
2019-06-08T17:33:39.420Z,100409.22
2019-06-08T17:36:20.148Z,100414.30
2019-06-08T17:39:01.578Z,100407.85
2019-06-08T17:41:49.008Z,100420.77
2019-06-08T17:44:38.444Z,100422.75
2019-06-08T17:47:25.726Z,100416.29
2019-06-08T17:50:10.352Z,100420.77
2019-06-08T17:53:07.913Z,100417.44
2019-06-08T17:55:48.849Z,100415.45
2019-06-08T17:58:45.391Z,100420.25
2019-06-08T18:01:39.746Z,100424.19
2019-06-08T18:04:33.512Z,100432.88
2019-06-08T18:07:20.053Z,100434.32
2019-06-08T18:10:11.844Z,100432.69
2019-06-08T18:12:55.007Z,100434.21
2019-06-08T18:15:41.850Z,100433.17
2019-06-08T18:18:28.300Z,100441.07
2019-06-08T18:21:19.654Z,100441.39
2019-06-08T18:24:02.701Z,100444.75
2019-06-08T18:26:44.731Z,100447.84
2019-06-08T18:29:27.540Z,100452.64
2019-06-08T18:32:07.618Z,100453.47
2019-06-08T18:34:53.658Z,100448.97
2019-06-08T18:37:38.119Z,100446.48
2019-06-08T18:40:21.082Z,100453.77
2019-06-08T18:43:09.049Z,100445.64
2019-06-08T18:45:59.921Z,100448.14
2019-06-08T18:48:49.364Z,100447.30
2019-06-08T18:51:37.834Z,100454.02
2019-06-08T18:54:21.954Z,100445.03
2019-06-08T18:57:02.134Z,100448.97
2019-06-08T18:59:47.001Z,100447.30
2019-06-08T19:02:29.076Z,100449.28
2019-06-08T19:05:20.817Z,100453.77
2019-06-08T19:08:06.956Z,100461.08
2019-06-08T19:11:09.511Z,100455.45
2019-06-08T19:13:58.074Z,100462.17
2019-06-08T19:16:46.670Z,100461.34
2019-06-08T19:19:36.774Z,100465.84
2019-06-08T19:22:22.477Z,100461.08
2019-06-08T19:25:04.201Z,100462.52
2019-06-08T19:27:52.790Z,100465.88
2019-06-08T19:30:34.620Z,100458.02
2019-06-08T19:33:13.934Z,100459.70
2019-06-08T19:35:55.141Z,100462.52
2019-06-08T19:38:39.652Z,100456.90
2019-06-08T19:41:28.428Z,100458.30
2019-06-08T19:44:07.527Z,100461.91
2019-06-08T19:46:53.823Z,100462.20
2019-06-08T19:49:35.638Z,100456.90
2019-06-08T19:52:18.323Z,100457.69
2019-06-08T19:55:11.739Z,100463.61
2019-06-08T19:57:57.525Z,100463.35
2019-06-08T20:00:42.382Z,100465.34
2019-06-08T20:03:27.379Z,100466.74
2019-06-08T20:06:14.395Z,100466.71
2019-06-08T20:08:57.317Z,100459.70
2019-06-08T20:11:44.152Z,100468.15
2019-06-08T20:14:24.666Z,100469.27
2019-06-08T20:17:02.434Z,100460.28
2019-06-08T20:19:53.415Z,100459.45
2019-06-08T20:22:38.619Z,100467.31
2019-06-08T20:25:18.267Z,100470.13
2019-06-08T20:27:59.622Z,100471.54
2019-06-08T20:30:37.505Z,100464.79
2019-06-08T20:33:16.048Z,100464.73
2019-06-08T20:35:54.571Z,100470.28
2019-06-08T20:38:38.554Z,100464.66
2019-06-08T20:41:12.584Z,100460.11
2019-06-08T20:43:52.132Z,100459.22
2019-06-08T20:46:30.938Z,100457.27
2019-06-08T20:49:08.493Z,100455.86
2019-06-08T20:51:48.172Z,100453.84
2019-06-08T20:54:27.867Z,100458.59
2019-06-08T20:57:08.097Z,100454.09
2019-06-08T20:59:48.132Z,100463.66
2019-06-08T21:02:29.585Z,100465.64
2019-06-08T21:05:08.137Z,100463.11
2019-06-08T21:07:50.890Z,100456.11
2019-06-08T21:10:38.996Z,100460.59
2019-06-08T21:13:23.583Z,100467.91
2019-06-08T21:16:07.369Z,100475.73
2019-06-08T21:18:44.686Z,100465.92
2019-06-08T21:21:28.135Z,100463.76
2019-06-08T21:24:07.897Z,100463.19
2019-06-08T21:26:50.810Z,100456.16
2019-06-08T21:29:46.537Z,100458.42
2019-06-08T21:32:09.793Z,100461.84
2019-06-08T21:34:53.756Z,100458.20
2019-06-08T21:37:33.390Z,100461.30
2019-06-08T21:40:17.594Z,100455.97
2019-06-08T21:43:01.105Z,100457.95
2019-06-08T21:45:39.491Z,100455.14
2019-06-08T21:48:27.383Z,100465.84
2019-06-08T21:51:15.229Z,100468.08
2019-06-08T21:53:58.745Z,100470.03
2019-06-08T21:56:38.766Z,100469.48
2019-06-08T21:59:18.404Z,100466.39
2019-06-08T22:02:02.641Z,100465.55
2019-06-08T22:04:42.890Z,100474.83
2019-06-08T22:07:28.334Z,100472.55
2019-06-08T22:10:10.744Z,100469.45
2019-06-08T22:12:50.751Z,100472.81
2019-06-08T22:15:37.897Z,100476.45
2019-06-08T22:18:21.845Z,100476.14
2019-06-08T22:21:08.067Z,100480.89
2019-06-08T22:23:52.378Z,100476.42
2019-06-08T22:26:58.015Z,100479.16
2019-06-08T22:29:34.905Z,100480.28
2019-06-08T22:32:15.228Z,100484.22
2019-06-08T22:34:52.774Z,100483.64
2019-06-08T22:37:42.689Z,100479.70
2019-06-08T22:40:23.577Z,100483.92
2019-06-08T22:43:08.271Z,100492.55
2019-06-08T22:45:54.418Z,100493.70
2019-06-08T22:48:44.829Z,100491.41
2019-06-08T22:51:30.010Z,100498.44
2019-06-08T22:54:14.433Z,100499.56
2019-06-08T23:00:20.570Z,100501.47
2019-06-08T23:03:05.165Z,100506.27
2019-06-08T23:05:51.877Z,100505.73
2019-06-08T23:08:33.610Z,100502.98
2019-06-08T23:11:32.325Z,100503.88
2019-06-08T23:14:14.874Z,100505.61
2019-06-08T23:17:02.042Z,100511.78
2019-06-08T23:19:54.998Z,100511.02
2019-06-08T23:22:40.937Z,100511.88
2019-06-08T23:25:43.629Z,100504.59
2019-06-08T23:28:28.236Z,100505.71
2019-06-08T23:31:31.295Z,100506.86
2019-06-08T23:34:30.230Z,100499.25
2019-06-08T23:37:12.961Z,100501.52
2019-06-08T23:39:57.628Z,100506.31
2019-06-08T23:42:55.239Z,100501.84
2019-06-08T23:45:37.955Z,100500.69
2019-06-08T23:48:52.509Z,100503.50
2019-06-08T23:51:53.263Z,100519.84
2019-06-08T23:55:09.723Z,100512.48
